sensor_id;sensor_type;location;lat;lon;timestamp;P1;durP1;ratioP1;P2;durP2;ratioP2
15043;SDS011;7619;48.562;8.910;2022-12-18T00:00:09;23.93;;;13.50;;
15043;SDS011;7619;48.562;8.910;2022-12-18T00:02:40;26.13;;;10.67;;
15043;SDS011;7619;48.562;8.910;2022-12-18T00:05:08;26.90;;;11.27;;
15043;SDS011;7619;48.562;8.910;2022-12-18T00:07:36;29.13;;;11.43;;
15043;SDS011;7619;48.562;8.910;2022-12-18T00:10:07;17.50;;;9.10;;
15043;SDS011;7619;48.562;8.910;2022-12-18T00:12:35;18.03;;;9.97;;
15043;SDS011;7619;48.562;8.910;2022-12-18T00:15:04;18.73;;;9.00;;
15043;SDS011;7619;48.562;8.910;2022-12-18T00:17:34;21.87;;;11.27;;
15043;SDS011;7619;48.562;8.910;2022-12-18T00:20:05;16.17;;;7.50;;
15043;SDS011;7619;48.562;8.910;2022-12-18T00:22:32;17.87;;;7.77;;
15043;SDS011;7619;48.562;8.910;2022-12-18T00:25:01;15.70;;;7.77;;
15043;SDS011;7619;48.562;8.910;2022-12-18T00:27:31;8.37;;;6.70;;
15043;SDS011;7619;48.562;8.910;2022-12-18T00:30:00;18.27;;;10.37;;
15043;SDS011;7619;48.562;8.910;2022-12-18T00:32:30;24.17;;;10.37;;
15043;SDS011;7619;48.562;8.910;2022-12-18T00:35:00;25.93;;;11.50;;
15043;SDS011;7619;48.562;8.910;2022-12-18T00:37:29;21.47;;;7.47;;
15043;SDS011;7619;48.562;8.910;2022-12-18T00:39:57;13.30;;;7.43;;
15043;SDS011;7619;48.562;8.910;2022-12-18T00:42:25;19.60;;;8.40;;
15043;SDS011;7619;48.562;8.910;2022-12-18T00:45:11;11.30;;;5.63;;
15043;SDS011;7619;48.562;8.910;2022-12-18T00:47:39;14.73;;;9.03;;
15043;SDS011;7619;48.562;8.910;2022-12-18T00:50:09;15.27;;;7.70;;
15043;SDS011;7619;48.562;8.910;2022-12-18T00:52:41;20.33;;;8.10;;
15043;SDS011;7619;48.562;8.910;2022-12-18T00:55:10;20.23;;;9.63;;
15043;SDS011;7619;48.562;8.910;2022-12-18T00:57:37;12.83;;;7.23;;
15043;SDS011;7619;48.562;8.910;2022-12-18T01:00:09;13.83;;;8.87;;
15043;SDS011;7619;48.562;8.910;2022-12-18T01:02:37;18.03;;;6.60;;
15043;SDS011;7619;48.562;8.910;2022-12-18T01:05:06;22.80;;;9.10;;
15043;SDS011;7619;48.562;8.910;2022-12-18T01:07:35;17.50;;;7.87;;
15043;SDS011;7619;48.562;8.910;2022-12-18T01:10:06;13.93;;;7.13;;
15043;SDS011;7619;48.562;8.910;2022-12-18T01:12:33;21.43;;;7.80;;
15043;SDS011;7619;48.562;8.910;2022-12-18T01:15:03;19.23;;;8.57;;
15043;SDS011;7619;48.562;8.910;2022-12-18T01:17:34;15.83;;;7.13;;
15043;SDS011;7619;48.562;8.910;2022-12-18T01:20:02;14.93;;;7.33;;
15043;SDS011;7619;48.562;8.910;2022-12-18T01:22:32;9.53;;;5.97;;
15043;SDS011;7619;48.562;8.910;2022-12-18T01:25:02;15.33;;;8.27;;
15043;SDS011;7619;48.562;8.910;2022-12-18T01:27:31;18.23;;;8.13;;
15043;SDS011;7619;48.562;8.910;2022-12-18T01:29:58;18.23;;;8.27;;
15043;SDS011;7619;48.562;8.910;2022-12-18T01:35:15;15.47;;;7.70;;
15043;SDS011;7619;48.562;8.910;2022-12-18T01:37:45;16.87;;;8.43;;
15043;SDS011;7619;48.562;8.910;2022-12-18T01:40:13;12.13;;;6.70;;
15043;SDS011;7619;48.562;8.910;2022-12-18T01:42:42;16.97;;;8.43;;
15043;SDS011;7619;48.562;8.910;2022-12-18T01:45:25;13.27;;;6.70;;
15043;SDS011;7619;48.562;8.910;2022-12-18T01:47:54;17.73;;;9.60;;
15043;SDS011;7619;48.562;8.910;2022-12-18T01:50:23;8.57;;;6.07;;
15043;SDS011;7619;48.562;8.910;2022-12-18T01:52:55;10.67;;;7.20;;
15043;SDS011;7619;48.562;8.910;2022-12-18T01:55:26;19.47;;;8.13;;
15043;SDS011;7619;48.562;8.910;2022-12-18T01:57:56;17.77;;;9.80;;
15043;SDS011;7619;48.562;8.910;2022-12-18T02:00:28;11.80;;;7.17;;
15043;SDS011;7619;48.562;8.910;2022-12-18T02:02:55;11.77;;;7.83;;
15043;SDS011;7619;48.562;8.910;2022-12-18T02:05:28;20.17;;;8.93;;
15043;SDS011;7619;48.562;8.910;2022-12-18T02:08:01;26.63;;;10.10;;
15043;SDS011;7619;48.562;8.910;2022-12-18T02:10:43;20.60;;;9.40;;
15043;SDS011;7619;48.562;8.910;2022-12-18T02:13:18;18.97;;;9.40;;
15043;SDS011;7619;48.562;8.910;2022-12-18T02:15:51;24.30;;;9.13;;
15043;SDS011;7619;48.562;8.910;2022-12-18T02:18:19;36.30;;;12.07;;
15043;SDS011;7619;48.562;8.910;2022-12-18T02:20:53;25.47;;;11.30;;
15043;SDS011;7619;48.562;8.910;2022-12-18T02:23:30;20.17;;;8.83;;
15043;SDS011;7619;48.562;8.910;2022-12-18T02:26:08;19.97;;;7.67;;
15043;SDS011;7619;48.562;8.910;2022-12-18T02:28:38;18.27;;;9.90;;
15043;SDS011;7619;48.562;8.910;2022-12-18T02:31:11;21.60;;;10.67;;
15043;SDS011;7619;48.562;8.910;2022-12-18T02:33:39;24.07;;;11.63;;
15043;SDS011;7619;48.562;8.910;2022-12-18T02:36:10;16.43;;;8.30;;
15043;SDS011;7619;48.562;8.910;2022-12-18T02:38:41;13.73;;;8.87;;
15043;SDS011;7619;48.562;8.910;2022-12-18T02:41:10;15.00;;;8.97;;
15043;SDS011;7619;48.562;8.910;2022-12-18T02:43:40;17.40;;;10.37;;
15043;SDS011;7619;48.562;8.910;2022-12-18T02:46:23;13.80;;;10.03;;
15043;SDS011;7619;48.562;8.910;2022-12-18T02:48:57;15.07;;;8.67;;
15043;SDS011;7619;48.562;8.910;2022-12-18T02:51:26;13.47;;;9.70;;
15043;SDS011;7619;48.562;8.910;2022-12-18T02:53:57;25.67;;;11.37;;
15043;SDS011;7619;48.562;8.910;2022-12-18T02:56:29;16.00;;;8.20;;
15043;SDS011;7619;48.562;8.910;2022-12-18T02:59:02;16.67;;;7.90;;
15043;SDS011;7619;48.562;8.910;2022-12-18T03:01:33;19.47;;;9.67;;
15043;SDS011;7619;48.562;8.910;2022-12-18T03:04:07;21.23;;;10.00;;
15043;SDS011;7619;48.562;8.910;2022-12-18T03:06:37;16.90;;;10.60;;
15043;SDS011;7619;48.562;8.910;2022-12-18T03:09:08;18.80;;;10.27;;
15043;SDS011;7619;48.562;8.910;2022-12-18T03:11:37;23.10;;;11.43;;
15043;SDS011;7619;48.562;8.910;2022-12-18T03:14:27;23.87;;;10.23;;
15043;SDS011;7619;48.562;8.910;2022-12-18T03:16:59;30.10;;;12.73;;
15043;SDS011;7619;48.562;8.910;2022-12-18T03:19:31;20.30;;;9.07;;
15043;SDS011;7619;48.562;8.910;2022-12-18T03:22:02;19.00;;;9.43;;
15043;SDS011;7619;48.562;8.910;2022-12-18T03:24:31;24.43;;;11.90;;
15043;SDS011;7619;48.562;8.910;2022-12-18T03:27:07;17.43;;;9.40;;
15043;SDS011;7619;48.562;8.910;2022-12-18T03:29:35;15.33;;;8.80;;
15043;SDS011;7619;48.562;8.910;2022-12-18T03:32:09;27.47;;;12.50;;
15043;SDS011;7619;48.562;8.910;2022-12-18T03:34:40;20.60;;;9.40;;
15043;SDS011;7619;48.562;8.910;2022-12-18T03:37:11;22.93;;;11.20;;
15043;SDS011;7619;48.562;8.910;2022-12-18T03:39:40;30.93;;;9.07;;
15043;SDS011;7619;48.562;8.910;2022-12-18T03:42:10;30.73;;;12.07;;
15043;SDS011;7619;48.562;8.910;2022-12-18T03:44:43;21.70;;;9.97;;
15043;SDS011;7619;48.562;8.910;2022-12-18T03:47:15;30.47;;;11.07;;
15043;SDS011;7619;48.562;8.910;2022-12-18T03:49:45;16.53;;;8.17;;
15043;SDS011;7619;48.562;8.910;2022-12-18T03:52:18;22.10;;;9.97;;
15043;SDS011;7619;48.562;8.910;2022-12-18T03:54:49;23.80;;;9.33;;
15043;SDS011;7619;48.562;8.910;2022-12-18T03:57:21;32.63;;;12.13;;
15043;SDS011;7619;48.562;8.910;2022-12-18T03:59:50;20.57;;;11.07;;
15043;SDS011;7619;48.562;8.910;2022-12-18T04:02:21;33.33;;;11.13;;
15043;SDS011;7619;48.562;8.910;2022-12-18T04:04:52;31.60;;;10.50;;
15043;SDS011;7619;48.562;8.910;2022-12-18T04:07:23;31.30;;;13.00;;
15043;SDS011;7619;48.562;8.910;2022-12-18T04:09:53;18.70;;;10.50;;
15043;SDS011;7619;48.562;8.910;2022-12-18T04:12:25;26.33;;;9.83;;
15043;SDS011;7619;48.562;8.910;2022-12-18T04:14:53;25.13;;;10.30;;
15043;SDS011;7619;48.562;8.910;2022-12-18T04:17:23;29.40;;;9.97;;
15043;SDS011;7619;48.562;8.910;2022-12-18T04:19:51;27.37;;;10.77;;
15043;SDS011;7619;48.562;8.910;2022-12-18T04:22:19;19.87;;;10.23;;
15043;SDS011;7619;48.562;8.910;2022-12-18T04:24:48;23.73;;;11.87;;
15043;SDS011;7619;48.562;8.910;2022-12-18T04:30:05;27.13;;;9.90;;
15043;SDS011;7619;48.562;8.910;2022-12-18T04:32:35;20.97;;;11.03;;
15043;SDS011;7619;48.562;8.910;2022-12-18T04:35:05;23.17;;;11.37;;
15043;SDS011;7619;48.562;8.910;2022-12-18T04:37:37;20.43;;;8.87;;
15043;SDS011;7619;48.562;8.910;2022-12-18T04:40:05;32.33;;;12.50;;
15043;SDS011;7619;48.562;8.910;2022-12-18T04:42:36;35.70;;;11.30;;
15043;SDS011;7619;48.562;8.910;2022-12-18T04:45:05;29.37;;;11.30;;
15043;SDS011;7619;48.562;8.910;2022-12-18T04:47:32;22.53;;;10.27;;
15043;SDS011;7619;48.562;8.910;2022-12-18T04:50:02;33.90;;;12.07;;
15043;SDS011;7619;48.562;8.910;2022-12-18T04:52:30;31.53;;;12.57;;
15043;SDS011;7619;48.562;8.910;2022-12-18T04:54:59;39.03;;;11.93;;
15043;SDS011;7619;48.562;8.910;2022-12-18T04:57:28;33.93;;;11.83;;
15043;SDS011;7619;48.562;8.910;2022-12-18T04:59:57;39.40;;;13.17;;
15043;SDS011;7619;48.562;8.910;2022-12-18T05:02:26;34.53;;;12.20;;
15043;SDS011;7619;48.562;8.910;2022-12-18T05:04:55;26.27;;;11.30;;
15043;SDS011;7619;48.562;8.910;2022-12-18T05:07:22;38.27;;;14.73;;
15043;SDS011;7619;48.562;8.910;2022-12-18T05:10:00;39.30;;;11.73;;
15043;SDS011;7619;48.562;8.910;2022-12-18T05:12:31;49.17;;;13.80;;
15043;SDS011;7619;48.562;8.910;2022-12-18T05:14:59;28.30;;;13.33;;
15043;SDS011;7619;48.562;8.910;2022-12-18T05:17:27;34.50;;;13.87;;
15043;SDS011;7619;48.562;8.910;2022-12-18T05:19:57;35.73;;;12.63;;
15043;SDS011;7619;48.562;8.910;2022-12-18T05:22:25;27.70;;;13.17;;
15043;SDS011;7619;48.562;8.910;2022-12-18T05:24:55;26.60;;;12.73;;
15043;SDS011;7619;48.562;8.910;2022-12-18T05:27:24;42.13;;;16.07;;
15043;SDS011;7619;48.562;8.910;2022-12-18T05:29:53;50.77;;;16.37;;
15043;SDS011;7619;48.562;8.910;2022-12-18T05:32:22;42.90;;;12.17;;
15043;SDS011;7619;48.562;8.910;2022-12-18T05:34:51;37.17;;;16.17;;
15043;SDS011;7619;48.562;8.910;2022-12-18T05:37:20;25.57;;;11.20;;
15043;SDS011;7619;48.562;8.910;2022-12-18T05:39:49;46.50;;;15.00;;
15043;SDS011;7619;48.562;8.910;2022-12-18T05:42:18;34.30;;;14.13;;
15043;SDS011;7619;48.562;8.910;2022-12-18T05:44:47;31.13;;;13.30;;
15043;SDS011;7619;48.562;8.910;2022-12-18T05:47:16;34.47;;;12.77;;
15043;SDS011;7619;48.562;8.910;2022-12-18T05:49:45;41.37;;;12.93;;
15043;SDS011;7619;48.562;8.910;2022-12-18T05:52:15;43.27;;;13.77;;
15043;SDS011;7619;48.562;8.910;2022-12-18T05:54:43;34.70;;;15.10;;
15043;SDS011;7619;48.562;8.910;2022-12-18T05:57:11;39.53;;;12.50;;
15043;SDS011;7619;48.562;8.910;2022-12-18T05:59:40;43.43;;;12.43;;
15043;SDS011;7619;48.562;8.910;2022-12-18T06:02:08;34.17;;;10.90;;
15043;SDS011;7619;48.562;8.910;2022-12-18T06:04:35;54.40;;;15.27;;
15043;SDS011;7619;48.562;8.910;2022-12-18T06:07:05;33.70;;;13.40;;
15043;SDS011;7619;48.562;8.910;2022-12-18T06:09:34;47.33;;;16.03;;
15043;SDS011;7619;48.562;8.910;2022-12-18T06:12:02;27.73;;;11.57;;
15043;SDS011;7619;48.562;8.910;2022-12-18T06:14:30;38.57;;;14.63;;
15043;SDS011;7619;48.562;8.910;2022-12-18T06:17:00;34.33;;;15.07;;
15043;SDS011;7619;48.562;8.910;2022-12-18T06:19:28;34.60;;;13.43;;
15043;SDS011;7619;48.562;8.910;2022-12-18T06:21:56;28.27;;;11.20;;
15043;SDS011;7619;48.562;8.910;2022-12-18T06:24:33;33.37;;;13.23;;
15043;SDS011;7619;48.562;8.910;2022-12-18T06:29:40;34.63;;;12.57;;
15043;SDS011;7619;48.562;8.910;2022-12-18T06:32:08;34.33;;;11.00;;
15043;SDS011;7619;48.562;8.910;2022-12-18T06:34:37;32.33;;;11.87;;
15043;SDS011;7619;48.562;8.910;2022-12-18T06:37:04;29.77;;;13.87;;
15043;SDS011;7619;48.562;8.910;2022-12-18T06:42:10;16.97;;;10.23;;
15043;SDS011;7619;48.562;8.910;2022-12-18T06:44:38;38.80;;;12.40;;
15043;SDS011;7619;48.562;8.910;2022-12-18T06:47:06;21.57;;;7.40;;
15043;SDS011;7619;48.562;8.910;2022-12-18T06:49:35;31.57;;;10.03;;
15043;SDS011;7619;48.562;8.910;2022-12-18T06:52:03;34.10;;;11.70;;
15043;SDS011;7619;48.562;8.910;2022-12-18T06:54:31;21.87;;;9.87;;
15043;SDS011;7619;48.562;8.910;2022-12-18T06:57:00;29.17;;;14.07;;
15043;SDS011;7619;48.562;8.910;2022-12-18T06:59:29;40.07;;;11.87;;
15043;SDS011;7619;48.562;8.910;2022-12-18T07:01:57;33.33;;;13.23;;
15043;SDS011;7619;48.562;8.910;2022-12-18T07:04:28;24.67;;;13.47;;
15043;SDS011;7619;48.562;8.910;2022-12-18T07:06:55;38.43;;;14.03;;
15043;SDS011;7619;48.562;8.910;2022-12-18T07:09:24;41.37;;;13.87;;
15043;SDS011;7619;48.562;8.910;2022-12-18T07:11:54;33.47;;;11.73;;
15043;SDS011;7619;48.562;8.910;2022-12-18T07:14:21;20.73;;;11.67;;
15043;SDS011;7619;48.562;8.910;2022-12-18T07:16:51;28.20;;;11.13;;
15043;SDS011;7619;48.562;8.910;2022-12-18T07:19:19;30.27;;;12.67;;
15043;SDS011;7619;48.562;8.910;2022-12-18T07:21:47;29.07;;;12.70;;
15043;SDS011;7619;48.562;8.910;2022-12-18T07:24:17;32.73;;;12.67;;
15043;SDS011;7619;48.562;8.910;2022-12-18T07:26:46;32.77;;;13.03;;
15043;SDS011;7619;48.562;8.910;2022-12-18T07:29:13;29.83;;;12.40;;
15043;SDS011;7619;48.562;8.910;2022-12-18T07:31:43;33.37;;;12.43;;
15043;SDS011;7619;48.562;8.910;2022-12-18T07:34:12;26.07;;;10.97;;
15043;SDS011;7619;48.562;8.910;2022-12-18T07:36:40;30.23;;;12.07;;
15043;SDS011;7619;48.562;8.910;2022-12-18T07:39:22;35.23;;;13.17;;
15043;SDS011;7619;48.562;8.910;2022-12-18T07:41:51;28.00;;;13.00;;
15043;SDS011;7619;48.562;8.910;2022-12-18T07:44:39;26.43;;;11.90;;
15043;SDS011;7619;48.562;8.910;2022-12-18T07:47:08;23.33;;;9.80;;
15043;SDS011;7619;48.562;8.910;2022-12-18T07:49:36;27.43;;;11.83;;
15043;SDS011;7619;48.562;8.910;2022-12-18T07:52:04;32.50;;;10.77;;
15043;SDS011;7619;48.562;8.910;2022-12-18T07:54:34;28.50;;;11.90;;
15043;SDS011;7619;48.562;8.910;2022-12-18T07:57:02;26.20;;;10.43;;
15043;SDS011;7619;48.562;8.910;2022-12-18T07:59:30;38.83;;;14.03;;
15043;SDS011;7619;48.562;8.910;2022-12-18T08:02:00;33.00;;;10.07;;
15043;SDS011;7619;48.562;8.910;2022-12-18T08:04:28;34.93;;;12.37;;
15043;SDS011;7619;48.562;8.910;2022-12-18T08:06:56;42.70;;;13.23;;
15043;SDS011;7619;48.562;8.910;2022-12-18T08:09:24;26.03;;;10.83;;
15043;SDS011;7619;48.562;8.910;2022-12-18T08:11:52;20.67;;;12.03;;
15043;SDS011;7619;48.562;8.910;2022-12-18T08:14:21;38.87;;;14.10;;
15043;SDS011;7619;48.562;8.910;2022-12-18T08:16:49;25.77;;;11.13;;
15043;SDS011;7619;48.562;8.910;2022-12-18T08:19:18;23.97;;;11.43;;
15043;SDS011;7619;48.562;8.910;2022-12-18T08:21:46;28.20;;;10.87;;
15043;SDS011;7619;48.562;8.910;2022-12-18T08:24:14;28.40;;;13.10;;
15043;SDS011;7619;48.562;8.910;2022-12-18T08:26:43;26.83;;;12.50;;
15043;SDS011;7619;48.562;8.910;2022-12-18T08:29:11;32.83;;;11.73;;
15043;SDS011;7619;48.562;8.910;2022-12-18T08:31:39;35.23;;;13.30;;
15043;SDS011;7619;48.562;8.910;2022-12-18T08:34:07;28.33;;;13.53;;
15043;SDS011;7619;48.562;8.910;2022-12-18T08:36:35;25.33;;;12.00;;
15043;SDS011;7619;48.562;8.910;2022-12-18T08:39:05;27.97;;;12.27;;
15043;SDS011;7619;48.562;8.910;2022-12-18T08:41:33;27.90;;;11.03;;
15043;SDS011;7619;48.562;8.910;2022-12-18T08:44:01;22.07;;;11.93;;
15043;SDS011;7619;48.562;8.910;2022-12-18T08:46:47;32.70;;;12.00;;
15043;SDS011;7619;48.562;8.910;2022-12-18T08:49:15;43.83;;;14.07;;
15043;SDS011;7619;48.562;8.910;2022-12-18T08:51:42;40.23;;;13.73;;
15043;SDS011;7619;48.562;8.910;2022-12-18T08:54:12;35.27;;;13.27;;
15043;SDS011;7619;48.562;8.910;2022-12-18T08:56:41;36.23;;;14.27;;
15043;SDS011;7619;48.562;8.910;2022-12-18T08:59:09;27.30;;;11.70;;
15043;SDS011;7619;48.562;8.910;2022-12-18T09:01:38;34.23;;;14.57;;
15043;SDS011;7619;48.562;8.910;2022-12-18T09:04:05;24.83;;;10.63;;
15043;SDS011;7619;48.562;8.910;2022-12-18T09:06:36;33.53;;;14.07;;
15043;SDS011;7619;48.562;8.910;2022-12-18T09:09:04;28.60;;;12.40;;
15043;SDS011;7619;48.562;8.910;2022-12-18T09:11:34;36.80;;;14.90;;
15043;SDS011;7619;48.562;8.910;2022-12-18T09:14:02;22.30;;;12.90;;
15043;SDS011;7619;48.562;8.910;2022-12-18T09:16:31;33.10;;;15.10;;
15043;SDS011;7619;48.562;8.910;2022-12-18T09:19:02;34.93;;;14.73;;
15043;SDS011;7619;48.562;8.910;2022-12-18T09:21:31;35.93;;;12.23;;
15043;SDS011;7619;48.562;8.910;2022-12-18T09:24:14;24.07;;;10.97;;
15043;SDS011;7619;48.562;8.910;2022-12-18T09:26:42;31.77;;;12.23;;
15043;SDS011;7619;48.562;8.910;2022-12-18T09:29:12;17.50;;;7.63;;
15043;SDS011;7619;48.562;8.910;2022-12-18T09:31:40;54.70;;;22.63;;
15043;SDS011;7619;48.562;8.910;2022-12-18T09:34:08;91.53;;;36.43;;
15043;SDS011;7619;48.562;8.910;2022-12-18T09:36:37;76.87;;;27.20;;
15043;SDS011;7619;48.562;8.910;2022-12-18T09:39:04;45.07;;;20.83;;
15043;SDS011;7619;48.562;8.910;2022-12-18T09:41:37;33.03;;;14.37;;
15043;SDS011;7619;48.562;8.910;2022-12-18T09:46:48;45.27;;;16.10;;
15043;SDS011;7619;48.562;8.910;2022-12-18T09:49:22;30.80;;;13.20;;
15043;SDS011;7619;48.562;8.910;2022-12-18T09:51:54;37.60;;;15.87;;
15043;SDS011;7619;48.562;8.910;2022-12-18T09:54:25;29.77;;;12.33;;
15043;SDS011;7619;48.562;8.910;2022-12-18T09:56:53;28.53;;;13.67;;
15043;SDS011;7619;48.562;8.910;2022-12-18T09:59:32;26.47;;;12.23;;
15043;SDS011;7619;48.562;8.910;2022-12-18T10:02:01;29.23;;;12.10;;
15043;SDS011;7619;48.562;8.910;2022-12-18T10:04:30;28.00;;;12.07;;
15043;SDS011;7619;48.562;8.910;2022-12-18T10:07:01;31.80;;;12.93;;
15043;SDS011;7619;48.562;8.910;2022-12-18T10:09:32;38.03;;;14.80;;
15043;SDS011;7619;48.562;8.910;2022-12-18T10:12:06;27.87;;;13.80;;
15043;SDS011;7619;48.562;8.910;2022-12-18T10:14:41;31.40;;;13.60;;
15043;SDS011;7619;48.562;8.910;2022-12-18T10:17:14;26.80;;;12.83;;
15043;SDS011;7619;48.562;8.910;2022-12-18T10:19:45;30.60;;;12.77;;
15043;SDS011;7619;48.562;8.910;2022-12-18T10:22:18;30.43;;;12.60;;
15043;SDS011;7619;48.562;8.910;2022-12-18T10:24:48;31.13;;;13.83;;
15043;SDS011;7619;48.562;8.910;2022-12-18T10:27:18;31.53;;;12.43;;
15043;SDS011;7619;48.562;8.910;2022-12-18T10:29:50;32.43;;;13.10;;
15043;SDS011;7619;48.562;8.910;2022-12-18T10:32:20;25.80;;;13.03;;
15043;SDS011;7619;48.562;8.910;2022-12-18T10:34:49;36.33;;;14.93;;
15043;SDS011;7619;48.562;8.910;2022-12-18T10:37:20;25.90;;;12.33;;
15043;SDS011;7619;48.562;8.910;2022-12-18T10:40:04;30.27;;;15.70;;
15043;SDS011;7619;48.562;8.910;2022-12-18T10:42:41;38.70;;;15.50;;
15043;SDS011;7619;48.562;8.910;2022-12-18T10:45:11;31.57;;;13.40;;
15043;SDS011;7619;48.562;8.910;2022-12-18T10:47:42;32.27;;;14.97;;
15043;SDS011;7619;48.562;8.910;2022-12-18T10:50:24;25.57;;;13.57;;
15043;SDS011;7619;48.562;8.910;2022-12-18T10:52:56;36.37;;;17.80;;
15043;SDS011;7619;48.562;8.910;2022-12-18T10:55:27;27.43;;;14.33;;
15043;SDS011;7619;48.562;8.910;2022-12-18T10:58:13;32.20;;;15.47;;
15043;SDS011;7619;48.562;8.910;2022-12-18T11:00:42;39.23;;;15.53;;
15043;SDS011;7619;48.562;8.910;2022-12-18T11:03:31;42.33;;;17.07;;
15043;SDS011;7619;48.562;8.910;2022-12-18T11:06:04;32.20;;;14.97;;
15043;SDS011;7619;48.562;8.910;2022-12-18T11:08:32;27.47;;;13.53;;
15043;SDS011;7619;48.562;8.910;2022-12-18T11:11:00;33.70;;;14.27;;
15043;SDS011;7619;48.562;8.910;2022-12-18T11:13:29;31.33;;;15.37;;
15043;SDS011;7619;48.562;8.910;2022-12-18T11:15:58;31.83;;;16.07;;
15043;SDS011;7619;48.562;8.910;2022-12-18T11:18:27;30.30;;;15.03;;
15043;SDS011;7619;48.562;8.910;2022-12-18T11:20:56;40.87;;;15.97;;
15043;SDS011;7619;48.562;8.910;2022-12-18T11:23:27;43.50;;;18.10;;
15043;SDS011;7619;48.562;8.910;2022-12-18T11:25:57;38.00;;;19.10;;
15043;SDS011;7619;48.562;8.910;2022-12-18T11:28:26;38.63;;;16.10;;
15043;SDS011;7619;48.562;8.910;2022-12-18T11:31:09;39.73;;;19.30;;
15043;SDS011;7619;48.562;8.910;2022-12-18T11:33:39;39.23;;;18.63;;
15043;SDS011;7619;48.562;8.910;2022-12-18T11:36:08;46.37;;;18.93;;
15043;SDS011;7619;48.562;8.910;2022-12-18T11:38:39;38.43;;;18.17;;
15043;SDS011;7619;48.562;8.910;2022-12-18T11:41:10;51.83;;;22.17;;
15043;SDS011;7619;48.562;8.910;2022-12-18T11:43:42;38.50;;;19.20;;
15043;SDS011;7619;48.562;8.910;2022-12-18T11:46:14;39.90;;;20.30;;
15043;SDS011;7619;48.562;8.910;2022-12-18T11:48:48;42.53;;;19.63;;
15043;SDS011;7619;48.562;8.910;2022-12-18T11:51:19;44.77;;;19.60;;
15043;SDS011;7619;48.562;8.910;2022-12-18T11:53:57;45.27;;;19.83;;
15043;SDS011;7619;48.562;8.910;2022-12-18T11:56:27;51.93;;;19.67;;
15043;SDS011;7619;48.562;8.910;2022-12-18T11:58:57;50.57;;;22.47;;
15043;SDS011;7619;48.562;8.910;2022-12-18T12:01:32;43.40;;;21.93;;
15043;SDS011;7619;48.562;8.910;2022-12-18T12:04:11;55.63;;;22.03;;
15043;SDS011;7619;48.562;8.910;2022-12-18T12:06:41;45.03;;;22.07;;
15043;SDS011;7619;48.562;8.910;2022-12-18T12:09:12;36.97;;;18.60;;
15043;SDS011;7619;48.562;8.910;2022-12-18T12:11:41;54.43;;;22.00;;
15043;SDS011;7619;48.562;8.910;2022-12-18T12:14:17;44.33;;;19.67;;
15043;SDS011;7619;48.562;8.910;2022-12-18T12:16:47;43.63;;;19.93;;
15043;SDS011;7619;48.562;8.910;2022-12-18T12:22:03;42.97;;;18.90;;
15043;SDS011;7619;48.562;8.910;2022-12-18T12:24:44;39.17;;;17.13;;
15043;SDS011;7619;48.562;8.910;2022-12-18T12:27:18;44.23;;;17.77;;
15043;SDS011;7619;48.562;8.910;2022-12-18T12:29:53;40.17;;;19.63;;
15043;SDS011;7619;48.562;8.910;2022-12-18T12:32:25;41.63;;;18.63;;
15043;SDS011;7619;48.562;8.910;2022-12-18T12:34:55;39.10;;;17.17;;
15043;SDS011;7619;48.562;8.910;2022-12-18T12:37:25;38.70;;;18.00;;
15043;SDS011;7619;48.562;8.910;2022-12-18T12:39:54;34.60;;;18.57;;
15043;SDS011;7619;48.562;8.910;2022-12-18T12:42:26;33.17;;;17.23;;
15043;SDS011;7619;48.562;8.910;2022-12-18T12:45:15;38.80;;;18.37;;
15043;SDS011;7619;48.562;8.910;2022-12-18T12:47:46;35.10;;;17.20;;
15043;SDS011;7619;48.562;8.910;2022-12-18T12:50:16;39.87;;;18.03;;
15043;SDS011;7619;48.562;8.910;2022-12-18T12:52:48;40.73;;;20.30;;
15043;SDS011;7619;48.562;8.910;2022-12-18T12:55:21;44.00;;;20.00;;
15043;SDS011;7619;48.562;8.910;2022-12-18T13:00:30;43.23;;;18.80;;
15043;SDS011;7619;48.562;8.910;2022-12-18T13:05:45;34.53;;;16.93;;
15043;SDS011;7619;48.562;8.910;2022-12-18T13:08:22;37.03;;;17.83;;
15043;SDS011;7619;48.562;8.910;2022-12-18T13:10:53;36.30;;;17.03;;
15043;SDS011;7619;48.562;8.910;2022-12-18T13:13:24;36.77;;;16.83;;
15043;SDS011;7619;48.562;8.910;2022-12-18T13:18:40;37.17;;;16.70;;
15043;SDS011;7619;48.562;8.910;2022-12-18T13:21:11;38.97;;;17.40;;
15043;SDS011;7619;48.562;8.910;2022-12-18T13:23:38;42.67;;;19.30;;
15043;SDS011;7619;48.562;8.910;2022-12-18T13:26:28;40.00;;;17.80;;
15043;SDS011;7619;48.562;8.910;2022-12-18T13:28:57;33.53;;;16.10;;
15043;SDS011;7619;48.562;8.910;2022-12-18T13:34:15;36.30;;;16.63;;
15043;SDS011;7619;48.562;8.910;2022-12-18T13:36:44;45.77;;;17.17;;
15043;SDS011;7619;48.562;8.910;2022-12-18T13:39:21;39.57;;;17.93;;
15043;SDS011;7619;48.562;8.910;2022-12-18T13:41:52;35.00;;;16.93;;
15043;SDS011;7619;48.562;8.910;2022-12-18T13:44:24;42.73;;;18.90;;
15043;SDS011;7619;48.562;8.910;2022-12-18T13:46:56;38.63;;;17.57;;
15043;SDS011;7619;48.562;8.910;2022-12-18T13:49:25;40.47;;;16.80;;
15043;SDS011;7619;48.562;8.910;2022-12-18T13:51:54;38.10;;;17.33;;
15043;SDS011;7619;48.562;8.910;2022-12-18T13:54:25;36.40;;;19.07;;
15043;SDS011;7619;48.562;8.910;2022-12-18T13:56:53;33.57;;;16.60;;
15043;SDS011;7619;48.562;8.910;2022-12-18T13:59:22;40.67;;;17.27;;
15043;SDS011;7619;48.562;8.910;2022-12-18T14:01:53;33.27;;;17.87;;
15043;SDS011;7619;48.562;8.910;2022-12-18T14:04:23;45.50;;;19.83;;
15043;SDS011;7619;48.562;8.910;2022-12-18T14:06:56;47.20;;;20.53;;
15043;SDS011;7619;48.562;8.910;2022-12-18T14:09:26;40.00;;;19.07;;
15043;SDS011;7619;48.562;8.910;2022-12-18T14:11:55;44.73;;;18.13;;
15043;SDS011;7619;48.562;8.910;2022-12-18T14:14:45;37.93;;;17.83;;
15043;SDS011;7619;48.562;8.910;2022-12-18T14:17:13;41.17;;;20.60;;
15043;SDS011;7619;48.562;8.910;2022-12-18T14:19:44;41.27;;;20.90;;
15043;SDS011;7619;48.562;8.910;2022-12-18T14:22:16;33.10;;;17.90;;
15043;SDS011;7619;48.562;8.910;2022-12-18T14:24:44;41.57;;;21.10;;
15043;SDS011;7619;48.562;8.910;2022-12-18T14:27:19;37.37;;;19.90;;
15043;SDS011;7619;48.562;8.910;2022-12-18T14:29:46;41.73;;;18.07;;
15043;SDS011;7619;48.562;8.910;2022-12-18T14:32:16;38.57;;;19.50;;
15043;SDS011;7619;48.562;8.910;2022-12-18T14:34:46;34.57;;;16.70;;
15043;SDS011;7619;48.562;8.910;2022-12-18T14:37:14;39.23;;;18.43;;
15043;SDS011;7619;48.562;8.910;2022-12-18T14:39:55;36.33;;;18.63;;
15043;SDS011;7619;48.562;8.910;2022-12-18T14:42:24;41.50;;;18.80;;
15043;SDS011;7619;48.562;8.910;2022-12-18T14:47:47;36.47;;;17.70;;
15043;SDS011;7619;48.562;8.910;2022-12-18T14:50:15;33.47;;;17.27;;
15043;SDS011;7619;48.562;8.910;2022-12-18T14:52:43;34.33;;;17.67;;
15043;SDS011;7619;48.562;8.910;2022-12-18T14:55:15;33.97;;;17.57;;
15043;SDS011;7619;48.562;8.910;2022-12-18T14:57:46;36.17;;;16.60;;
15043;SDS011;7619;48.562;8.910;2022-12-18T15:00:16;38.93;;;16.67;;
15043;SDS011;7619;48.562;8.910;2022-12-18T15:02:55;37.70;;;15.93;;
15043;SDS011;7619;48.562;8.910;2022-12-18T15:05:25;38.30;;;17.93;;
15043;SDS011;7619;48.562;8.910;2022-12-18T15:07:54;31.13;;;14.70;;
15043;SDS011;7619;48.562;8.910;2022-12-18T15:13:08;39.00;;;17.37;;
15043;SDS011;7619;48.562;8.910;2022-12-18T15:15:45;35.23;;;16.70;;
15043;SDS011;7619;48.562;8.910;2022-12-18T15:18:14;31.03;;;16.33;;
15043;SDS011;7619;48.562;8.910;2022-12-18T15:23:24;33.10;;;14.87;;
15043;SDS011;7619;48.562;8.910;2022-12-18T15:25:56;34.33;;;16.83;;
15043;SDS011;7619;48.562;8.910;2022-12-18T15:28:26;39.83;;;16.53;;
15043;SDS011;7619;48.562;8.910;2022-12-18T15:31:03;28.47;;;15.17;;
15043;SDS011;7619;48.562;8.910;2022-12-18T15:33:32;48.10;;;22.13;;